Flight Track Log - Related Links

Times and Time Zones

All times are in EDT time to prevent confusion due to time zone crossing. See the THY1030 flight status page for this flight to view local times or setup timezone preferences in your user account.

Time Position Orientation Groundspeed Altitude Reporting Facility
EDT Latitude Longitude Course Direction KTS MPH feet Rate Location/Type
Sat 03:21:00 PM 42.3395 24.6214 111° Southeast  Level Estimated
Sat 03:22:00 PM 42.3065 24.7312 112° Southeast  Level Estimated
Sat 03:23:00 PM 42.2735 24.8409 112° Southeast  Level Estimated
Sat 03:24:00 PM 42.2403 24.9504 112° Southeast  Level Estimated
Sat 03:25:00 PM 42.2070 25.0599 112° Southeast  Level Estimated
Sat 03:26:00 PM 42.1736 25.1692 112° Southeast  Level Estimated
Sat 03:27:00 PM 42.1401 25.2784 112° Southeast  Level Estimated
Sat 03:28:00 PM 42.1065 25.3875 113° Southeast  Level Estimated
Sat 03:29:00 PM 42.0728 25.4965 113° Southeast  Level Estimated
Sat 03:30:00 PM 42.0390 25.6054 113° Southeast  Level Estimated
Sat 03:31:00 PM 42.0051 25.7141 113° Southeast  Level Estimated
Sat 03:32:00 PM 41.9711 25.8227 113° Southeast  Level Estimated
Sat 03:33:00 PM 41.9370 25.9313 113° Southeast  Level Estimated
Sat 03:34:00 PM 41.9028 26.0397 113° Southeast  Level Estimated
Sat 03:35:00 PM 41.8685 26.1479 113° Southeast  Level Estimated
Sat 03:36:00 PM 41.8341 26.2561 113° Southeast  Level Estimated
Sat 03:37:00 PM 41.7996 26.3642 113° Southeast  Level Estimated
Sat 03:38:00 PM 41.7650 26.4721 113° Southeast  Level Estimated
Sat 03:39:00 PM 41.7302 26.5799 113° Southeast  Level Estimated
Sat 03:40:00 PM 41.6954 26.6876 113° Southeast  Level Estimated
Sat 03:41:00 PM 41.6605 26.7952 113° Southeast  Level Estimated
Sat 03:42:00 PM 41.6255 26.9027 114° Southeast  Level Estimated
Sat 03:43:00 PM 41.5904 27.0100 114° Southeast  Level Estimated
Sat 03:44:00 PM 41.5551 27.1173 114° Southeast  Level Estimated
Sat 03:45:00 PM 41.5198 27.2244 114° Southeast  Level Estimated
Sat 03:46:00 PM 41.4844 27.3314 114° Southeast  Level Estimated
Sat 03:47:00 PM 41.4489 27.4383 114° Southeast  Level Estimated
Sat 03:48:00 PM 41.4133 27.5450 114° Southeast  Level Estimated
Sat 03:49:00 PM 41.3776 27.6517 114° Southeast  Level Estimated
Sat 03:50:00 PM 41.3418 27.7582 114° Southeast  Level Estimated
Sat 03:51:00 PM 41.3059 27.8646 114° Southeast  Level Estimated
Sat 03:52:00 PM 41.2699 27.9709 114° Southeast  Level Estimated
Sat 03:53:00 PM 41.2337 28.0771 114° Southeast  Level Estimated
Sat 03:54:00 PM 41.1976 28.1832 114° Southeast  Level Estimated
Sat 03:55:00 PM 41.1613 28.2891 114° Southeast  Level Estimated
Sat 03:56:00 PM 41.1249 28.3949 115° Southeast  Level Estimated
Sat 03:57:00 PM 41.0884 28.5007 115° Southeast  Level Estimated
Sat 03:58:00 PM 41.0518 28.6063 115° Southeast  Level Estimated
Sat 03:59:00 PM 41.0151 28.7117 115° Southeast  Level Estimated
Sat 04:00:00 PM 40.9783 28.8171 115° Southeast  Level Estimated
Sat 04:01:00 PM 40.9769 28.8211 115° Southeast  Level Estimated
Sat 04:02:00 PM 40.9769 28.8211 North  Level Estimated
Sat 04:03:00 PM 40.9769 28.8211 North  Level Estimated
Sat 04:04:00 PM 40.9769 28.8211 North  Level Estimated
Sat 04:05:00 PM 40.9769 28.8211 North  Level Estimated
Sat 04:06:00 PM 40.9769 28.8211 North  Level Estimated
Sat 04:07:00 PM 40.9769 28.8211 North  Level Estimated
Sat 04:08:00 PM 40.9769 28.8211 North  Level Estimated
Sat 04:09:00 PM 40.9769 28.8211 North  Level Estimated
Sat 04:10:00 PM 40.9769 28.8211 North  Level Estimated
Sat 04:11:00 PM 40.9769 28.8211 North  Level Estimated
Sat 04:12:00 PM 40.9769 28.8211 North  Level Estimated
Sat 04:13:00 PM 40.9769 28.8211 North  Level Estimated
Sat 04:14:00 PM 40.9769 28.8211 North  Level Estimated
Sat 04:15:00 PM 40.9769 28.8211 North  Level Estimated
Sat 04:16:00 PM 40.9769 28.8211 North  Level Estimated

Login

Don't have an account? Register now (free) for customized features, flight alerts, and more!